函館空港の過去48時間の天気

函館空港 (Hakodate)

現在時刻: 5/28 14:27 JST (5/28 05:27 UTC) 以下の時間は現地時間です。

過去48時間のMETAR気象情報
時間 風向 風速(m/s) 視程 気温(℃) 湿度(%) 気圧(hPa) 天気現象
28 14:00 南西 7 10km以上 14 82 1005
28 13:00 南南西 4 10km以上 15 77 1005
28 12:00 南西 4 10km以上 14 82 1005
28 11:00 南南西 4 10km以上 15 72 1005
28 10:00 西南西 6 10km以上 15 72 1005
28 09:00 西 6 10km以上 13 82 1005
28 08:00 西 5 10km以上 12 82 1005
28 07:00 西南西 5 10km以上 11 87 1004
27 20:00 西南西 3 10km以上 12 94 1003
27 19:00 西南西 4 10km以上 13 94 1002
27 18:00 西南西 2 10km以上 12 100 1001 弱いしゅう雨
27 17:00 南西 2 10km以上 12 100 1001 弱いしゅう雨
27 16:00 南西 2 10km以上 13 94 1001 弱いしゅう雨
27 15:00 西北西 3 10km以上 14 94 1001 弱いしゅう雨
27 14:00 不定 1 8000m 13 94 1001 弱いしゅう雨
27 13:00 南南東 2 4900m 13 94 1001 弱いしゅう雨 もや
27 12:00 不定 1 8000m 13 94 1001 弱いしゅう雨
27 11:00 南南東 2 8000m 13 94 1002 弱いしゅう雨
27 10:00 2 10km以上 14 94 1002 弱いしゅう雨
27 09:00 東南東 2 5000m 13 100 1002 弱いしゅう雨 もや
27 08:00 東南東 2 8000m 13 94 1003 弱いしゅう雨
27 07:00 不定 1 10km以上 12 94 1003 弱いしゅう雨
RJCH 280500Z 23013KT 9999 FEW020 14/11 Q1005
RJCH 280400Z 21008KT 9999 FEW025 15/11 Q1005
RJCH 280300Z 22007KT 9999 FEW025 14/11 Q1005
RJCH 280200Z 21008KT 9999 FEW025 15/10 Q1005
RJCH 280100Z 25011KT 9999 FEW030 15/10 Q1005
RJCH 280000Z 27012KT 9999 FEW015 BKN020 13/10 Q1005
RJCH 272300Z 28009KT 9999 FEW012 SCT018 BKN025 12/09 Q1005
RJCH 272200Z 25009KT 9999 SCT012 BKN018 11/09 Q1004
RJCH 271100Z 24006KT 9999 FEW008 SCT100 12/11 Q1003
RJCH 271000Z 24007KT 9999 FEW005 SCT050 BKN080 13/12 Q1002
RJCH 270900Z 25004KT 9999 -SHRA FEW008 SCT040 BKN080 12/12 Q1001
RJCH 270800Z 22003KT 9999 -SHRA FEW005 SCT020 BKN060 12/12 Q1001
RJCH 270700Z 23004KT 200V270 9999 -SHRA FEW008 SCT030 BKN060 13/12 Q1001
RJCH 270600Z 30005KT 270V340 9999 -SHRA FEW005 SCT030 BKN060 14/13 Q1001
RJCH 270500Z VRB01KT 8000 -SHRA FEW003 SCT008 BKN030 13/12 Q1001
RJCH 270400Z 16004KT 130V190 4900 -SHRA BR FEW003 BKN006 BKN012 13/12 Q1001
RJCH 270300Z VRB02KT 8000 -SHRA FEW003 BKN008 BKN012 13/12 Q1001
RJCH 270200Z 16003KT 8000 -SHRA FEW003 BKN006 BKN012 13/12 Q1002
RJCH 270100Z 17003KT 130V220 9999 -SHRA FEW003 SCT008 BKN012 14/13 Q1002
RJCH 270000Z 11003KT 5000 -SHRA BR FEW003 BKN007 BKN012 13/13 Q1002
RJCH 262300Z 12004KT 8000 -SHRA FEW004 SCT030 BKN070 13/12 Q1003
RJCH 262200Z VRB02KT 9999 -SHRA FEW006 SCT025 BKN070 12/11 Q1003